Time;durP1;ratioP1;P1;durP2;ratioP2;P2;SDS_P1;SDS_P2;PMS_P1;PMS_P2;Temp;Humidity;BMP_temperature;BMP_pressure;BME280_temperature;BME280_humidity;BME280_pressure;Samples;Min_cycle;Max_cycle;Signal;HPM_P1;HPM_P2
2023/08/23 00:00:49;;;;;;;4.73;4.33;;;17.50;99.90;;;;;;5073941;28;20186;-73
2023/08/23 00:03:15;;;;;;;5.40;4.47;;;17.50;99.90;;;;;;5073904;28;20202;-73
2023/08/23 00:05:43;;;;;;;4.67;4.20;;;17.50;99.90;;;;;;5074303;28;20700;-73
2023/08/23 00:08:08;;;;;;;5.90;4.57;;;17.50;99.90;;;;;;5074043;28;20194;-73
2023/08/23 00:10:34;;;;;;;5.77;4.70;;;17.40;99.90;;;;;;5074322;28;20205;-73
2023/08/23 00:12:59;;;;;;;5.43;4.90;;;17.40;99.90;;;;;;5073448;28;20634;-72
2023/08/23 00:15:25;;;;;;;4.80;4.40;;;17.30;99.90;;;;;;5073926;28;20255;-73
2023/08/23 00:17:51;;;;;;;5.07;4.27;;;17.40;99.90;;;;;;5072453;28;20204;-73
2023/08/23 00:20:16;;;;;;;7.50;4.30;;;17.40;99.90;;;;;;5074046;28;20185;-72
2023/08/23 00:22:42;;;;;;;4.83;4.43;;;17.50;99.90;;;;;;5072257;28;20265;-73
2023/08/23 00:25:08;;;;;;;5.60;4.93;;;17.50;99.90;;;;;;5074051;28;20204;-73
2023/08/23 00:27:34;;;;;;;4.97;4.47;;;17.50;99.90;;;;;;5068328;28;20644;-73
2023/08/23 00:29:59;;;;;;;5.73;4.63;;;17.40;99.90;;;;;;5073365;28;20257;-73
2023/08/23 00:32:25;;;;;;;5.17;4.60;;;17.40;99.90;;;;;;5072246;28;20663;-74
2023/08/23 00:34:50;;;;;;;4.30;3.90;;;17.30;99.90;;;;;;5073752;28;20201;-73
2023/08/23 00:37:16;;;;;;;5.20;4.60;;;17.30;99.90;;;;;;5073653;28;20182;-72
2023/08/23 00:39:42;;;;;;;5.10;4.53;;;17.30;99.90;;;;;;5073721;28;20209;-73
2023/08/23 00:42:07;;;;;;;4.73;4.30;;;17.40;99.90;;;;;;5072957;28;20206;-73
2023/08/23 00:44:33;;;;;;;7.10;4.37;;;17.30;99.90;;;;;;5071702;28;20216;-72
2023/08/23 00:46:59;;;;;;;6.77;4.77;;;17.30;99.90;;;;;;5073470;28;20193;-72
2023/08/23 00:49:25;;;;;;;5.23;4.83;;;17.30;99.90;;;;;;5073461;28;20632;-72
2023/08/23 00:51:51;;;;;;;4.83;4.43;;;17.30;99.90;;;;;;5072925;28;20174;-72
2023/08/23 00:54:17;;;;;;;4.87;4.47;;;17.20;99.90;;;;;;5072781;28;20200;-73
2023/08/23 00:56:43;;;;;;;4.83;4.33;;;17.10;99.90;;;;;;5073322;28;20178;-73
2023/08/23 00:59:09;;;;;;;4.70;4.30;;;17.10;99.90;;;;;;5073343;28;20177;-72
2023/08/23 01:01:35;;;;;;;4.20;3.90;;;17.10;99.90;;;;;;5054151;28;20228;-72
2023/08/23 01:04:01;;;;;;;7.37;3.87;;;17.10;99.90;;;;;;5052742;28;20302;-73
2023/08/23 01:06:52;;;;;;;8.70;4.30;;;17.00;99.90;;;;;;5053181;28;20301;-73
2023/08/23 01:09:21;;;;;;;5.77;4.40;;;16.90;99.90;;;;;;5029311;28;20194;-73
2023/08/23 01:12:33;;;;;;;4.27;3.90;;;16.90;99.90;;;;;;5051516;28;20392;-73
2023/08/23 01:15:04;;;;;;;4.77;4.07;;;17.00;99.90;;;;;;5050427;28;20202;-73
2023/08/23 01:17:32;;;;;;;5.03;3.90;;;17.00;99.90;;;;;;5068820;28;20174;-73
2023/08/23 01:19:59;;;;;;;5.17;4.30;;;17.00;99.90;;;;;;5072730;28;20182;-73
2023/08/23 01:22:29;;;;;;;4.30;3.87;;;17.00;99.90;;;;;;5072645;28;20589;-73
2023/08/23 01:24:55;;;;;;;6.67;4.13;;;17.00;99.90;;;;;;5072611;28;20593;-73
2023/08/23 01:27:21;;;;;;;6.03;4.13;;;17.00;99.90;;;;;;5072687;28;20166;-73
2023/08/23 01:29:47;;;;;;;4.27;3.90;;;17.00;99.90;;;;;;5072612;28;20182;-73
2023/08/23 01:32:13;;;;;;;6.03;4.43;;;17.00;99.90;;;;;;5070288;28;20182;-73
2023/08/23 01:34:46;;;;;;;5.50;5.00;;;17.00;99.90;;;;;;5071147;28;20694;-73
2023/08/23 01:37:12;;;;;;;7.10;4.50;;;17.00;99.90;;;;;;5072471;28;20173;-73
2023/08/23 01:39:38;;;;;;;10.20;4.50;;;17.00;99.90;;;;;;5072513;28;20181;-73
2023/08/23 01:42:05;;;;;;;8.23;4.93;;;16.90;99.90;;;;;;5071854;28;20217;-73
2023/08/23 01:44:31;;;;;;;7.67;4.63;;;16.90;99.90;;;;;;5069969;28;20264;-73
2023/08/23 01:46:56;;;;;;;5.63;5.10;;;16.80;99.90;;;;;;5052416;28;20547;-74
2023/08/23 01:49:22;;;;;;;5.50;4.47;;;16.80;99.90;;;;;;5052498;28;20175;-73
2023/08/23 01:51:48;;;;;;;5.13;4.63;;;16.80;99.90;;;;;;5052122;28;20576;-73
2023/08/23 01:54:13;;;;;;;6.43;4.37;;;16.70;99.90;;;;;;5052326;28;20203;-73
2023/08/23 01:56:39;;;;;;;8.67;4.30;;;16.80;99.90;;;;;;5052284;28;20189;-73
2023/08/23 01:59:04;;;;;;;5.73;5.20;;;16.80;99.90;;;;;;5052042;28;20198;-73
2023/08/23 02:01:31;;;;;;;5.73;4.53;;;16.80;99.90;;;;;;5052966;28;20185;-72
2023/08/23 02:03:57;;;;;;;7.30;4.47;;;16.80;99.90;;;;;;5051265;28;20301;-73
2023/08/23 02:06:22;;;;;;;5.57;4.70;;;16.70;99.90;;;;;;5051952;28;20254;-73
2023/08/23 02:08:48;;;;;;;5.63;4.80;;;16.70;99.90;;;;;;5052044;28;20186;-72
2023/08/23 02:11:13;;;;;;;6.33;4.73;;;16.70;99.90;;;;;;5051896;28;20624;-73
2023/08/23 02:13:39;;;;;;;5.90;4.40;;;16.60;99.90;;;;;;5050655;28;20210;-73
2023/08/23 02:16:05;;;;;;;8.13;5.10;;;16.60;99.90;;;;;;5051780;28;20743;-73
2023/08/23 02:18:30;;;;;;;4.67;4.30;;;16.60;99.90;;;;;;5054488;28;20228;-73
2023/08/23 02:20:57;;;;;;;6.67;4.37;;;16.50;99.90;;;;;;5071898;28;20699;-73
2023/08/23 02:23:23;;;;;;;4.90;4.40;;;16.40;99.90;;;;;;5071483;28;20248;-72
2023/08/23 02:25:49;;;;;;;5.03;4.40;;;16.40;99.90;;;;;;5071847;28;20169;-73
2023/08/23 02:28:14;;;;;;;5.27;4.80;;;16.40;99.90;;;;;;5071595;28;20174;-72
2023/08/23 02:30:41;;;;;;;5.03;4.20;;;16.40;99.90;;;;;;5071885;28;20170;-72
2023/08/23 02:33:06;;;;;;;7.73;4.30;;;16.40;99.90;;;;;;5071380;28;20261;-73
2023/08/23 02:35:32;;;;;;;5.97;4.40;;;16.40;99.90;;;;;;5063845;28;20302;-73
2023/08/23 02:37:58;;;;;;;5.20;4.70;;;16.40;99.90;;;;;;5051692;28;20229;-72
2023/08/23 02:40:24;;;;;;;5.07;4.67;;;16.30;99.90;;;;;;5051632;28;20176;-72
2023/08/23 02:42:50;;;;;;;5.17;4.63;;;16.30;99.90;;;;;;5051090;28;20560;-73
2023/08/23 02:45:15;;;;;;;6.10;5.03;;;16.30;99.90;;;;;;5051831;28;20627;-72
2023/08/23 02:47:41;;;;;;;6.20;4.67;;;16.20;99.90;;;;;;5051567;28;20538;-73
2023/08/23 02:50:07;;;;;;;4.77;4.37;;;16.20;99.90;;;;;;5051473;28;20174;-73
2023/08/23 02:52:32;;;;;;;5.70;5.20;;;16.10;99.90;;;;;;5052344;28;20171;-73
2023/08/23 02:54:58;;;;;;;5.40;4.90;;;16.10;99.90;;;;;;5051320;28;20202;-72
2023/08/23 02:57:23;;;;;;;8.77;5.33;;;16.10;99.90;;;;;;5051536;28;20671;-73
2023/08/23 02:59:49;;;;;;;5.50;5.00;;;16.10;99.90;;;;;;5051514;28;20259;-72
2023/08/23 03:02:15;;;;;;;6.93;5.37;;;16.10;99.90;;;;;;5050837;28;20191;-73
2023/08/23 03:04:40;;;;;;;7.93;5.40;;;16.10;99.90;;;;;;5051217;28;20265;-72
2023/08/23 03:07:06;;;;;;;6.50;5.20;;;16.00;99.90;;;;;;5051345;28;20438;-72
2023/08/23 03:09:31;;;;;;;5.90;5.33;;;16.00;99.90;;;;;;5052430;28;20632;-73
2023/08/23 03:11:57;;;;;;;6.17;5.37;;;16.00;99.90;;;;;;5050958;28;20206;-73
2023/08/23 03:14:22;;;;;;;5.80;5.20;;;16.00;99.90;;;;;;5051011;28;20669;-73
2023/08/23 03:16:48;;;;;;;6.40;5.37;;;16.00;99.90;;;;;;5053055;28;20181;-72
2023/08/23 03:19:13;;;;;;;8.40;6.00;;;16.00;99.90;;;;;;5055318;28;20182;-72
2023/08/23 03:21:39;;;;;;;8.27;5.83;;;16.00;99.90;;;;;;5055244;28;20256;-72
2023/08/23 03:24:05;;;;;;;8.27;6.23;;;16.00;99.90;;;;;;5054750;28;20211;-72
2023/08/23 03:26:30;;;;;;;6.07;5.47;;;16.00;99.90;;;;;;5073535;28;20178;-72
2023/08/23 03:28:56;;;;;;;7.37;5.87;;;16.00;99.90;;;;;;5075141;28;20259;-73
2023/08/23 03:31:21;;;;;;;8.73;5.37;;;16.00;99.90;;;;;;5074943;28;20252;-72
2023/08/23 03:33:47;;;;;;;6.37;5.77;;;15.90;99.90;;;;;;5074883;28;20666;-73
2023/08/23 03:36:13;;;;;;;6.30;5.67;;;15.90;99.90;;;;;;5073589;28;20185;-73
2023/08/23 03:38:38;;;;;;;8.40;5.97;;;16.00;99.90;;;;;;5075007;28;20182;-73
2023/08/23 03:41:11;;;;;;;5.60;5.10;;;16.00;99.90;;;;;;5071782;28;20178;-73
2023/08/23 03:43:36;;;;;;;6.37;5.87;;;16.00;99.90;;;;;;5054798;28;20221;-73
2023/08/23 03:46:02;;;;;;;9.83;6.17;;;16.00;99.90;;;;;;5054839;28;20249;-73
2023/08/23 03:48:27;;;;;;;7.23;5.50;;;16.00;99.90;;;;;;5054897;28;20209;-72
2023/08/23 03:50:58;;;;;;;7.43;5.20;;;15.90;99.90;;;;;;5055075;28;20174;-73
2023/08/23 03:53:23;;;;;;;7.07;5.90;;;15.90;99.90;;;;;;5054465;28;20685;-72
2023/08/23 03:55:53;;;;;;;7.03;5.43;;;15.90;99.90;;;;;;5054685;28;20187;-73
2023/08/23 03:58:20;;;;;;;5.80;5.30;;;15.90;99.90;;;;;;5055481;28;20608;-72
2023/08/23 04:00:52;;;;;;;7.07;5.33;;;15.90;99.90;;;;;;5054584;28;20175;-72
2023/08/23 04:03:17;;;;;;;8.13;5.27;;;15.90;99.90;;;;;;5052678;28;20206;-73
2023/08/23 04:05:43;;;;;;;7.90;5.50;;;15.80;99.90;;;;;;5054572;28;20186;-72
2023/08/23 04:08:08;;;;;;;6.47;4.83;;;15.80;99.90;;;;;;5054539;28;20183;-73
2023/08/23 04:10:34;;;;;;;5.57;5.07;;;15.80;99.90;;;;;;5054392;28;20167;-73
2023/08/23 04:13:00;;;;;;;5.80;5.20;;;15.80;99.90;;;;;;5054269;28;20175;-72
2023/08/23 04:15:26;;;;;;;5.00;4.50;;;15.80;99.90;;;;;;5055279;28;20757;-73
2023/08/23 04:17:52;;;;;;;5.20;4.67;;;15.70;99.90;;;;;;5054627;28;20182;-72
2023/08/23 04:20:17;;;;;;;6.33;4.97;;;15.70;99.90;;;;;;5054094;28;20170;-73
2023/08/23 04:22:43;;;;;;;13.13;5.10;;;15.70;99.90;;;;;;5053817;28;20546;-73
2023/08/23 04:25:10;;;;;;;5.13;4.63;;;15.70;99.90;;;;;;5054139;28;20198;-73
2023/08/23 04:27:36;;;;;;;5.40;4.90;;;15.70;99.90;;;;;;5051931;28;20175;-72
2023/08/23 04:30:02;;;;;;;5.87;5.13;;;15.70;99.90;;;;;;5053971;28;20179;-73
2023/08/23 04:32:27;;;;;;;5.40;4.90;;;15.70;99.90;;;;;;5054625;28;20189;-72
2023/08/23 04:34:53;;;;;;;8.63;4.83;;;15.60;99.90;;;;;;5053762;28;20195;-73
2023/08/23 04:37:19;;;;;;;6.07;5.03;;;15.70;99.90;;;;;;5053958;28;20190;-73
2023/08/23 04:39:44;;;;;;;6.17;5.53;;;15.60;99.90;;;;;;5053953;28;20383;-72
2023/08/23 04:42:10;;;;;;;8.03;5.67;;;15.70;99.90;;;;;;5052991;28;20256;-72
2023/08/23 04:44:35;;;;;;;5.90;5.30;;;15.70;99.90;;;;;;5053657;28;20206;-73
2023/08/23 04:47:01;;;;;;;7.00;5.47;;;15.70;99.90;;;;;;5053007;28;20167;-72
2023/08/23 04:49:27;;;;;;;5.60;5.10;;;15.70;99.90;;;;;;5054353;28;20640;-73
2023/08/23 04:51:52;;;;;;;7.97;6.10;;;15.70;99.90;;;;;;5053168;28;20220;-73
2023/08/23 04:54:18;;;;;;;8.23;5.93;;;15.80;99.90;;;;;;5053224;28;20198;-73
2023/08/23 04:56:44;;;;;;;7.10;5.23;;;15.80;99.90;;;;;;5054179;28;20638;-73
2023/08/23 04:59:09;;;;;;;10.23;6.27;;;15.80;99.90;;;;;;5053248;28;20187;-72
2023/08/23 05:01:35;;;;;;;8.17;5.73;;;15.90;99.90;;;;;;5051776;28;20174;-72
2023/08/23 05:04:00;;;;;;;10.83;6.07;;;15.90;99.90;;;;;;5053887;28;20211;-73
2023/08/23 05:06:26;;;;;;;6.83;5.67;;;16.00;99.90;;;;;;5051834;28;20195;-73
2023/08/23 05:08:51;;;;;;;6.43;5.83;;;16.00;99.90;;;;;;5053128;28;20178;-73
2023/08/23 05:11:17;;;;;;;6.70;6.07;;;16.10;99.90;;;;;;5052685;28;20175;-73
2023/08/23 05:13:43;;;;;;;6.70;5.80;;;16.10;99.90;;;;;;5052872;28;20206;-73
2023/08/23 05:16:08;;;;;;;6.00;5.40;;;16.20;99.90;;;;;;5051397;28;20190;-73
2023/08/23 05:18:34;;;;;;;6.63;5.30;;;16.20;99.90;;;;;;5052915;28;20177;-73
2023/08/23 05:20:59;;;;;;;6.23;5.50;;;16.20;99.90;;;;;;5069707;28;20190;-73
2023/08/23 05:23:25;;;;;;;7.80;5.47;;;16.20;99.90;;;;;;5072451;28;20599;-73
2023/08/23 05:25:52;;;;;;;6.57;5.60;;;16.30;99.90;;;;;;5072703;28;20538;-73
2023/08/23 05:28:21;;;;;;;6.27;5.47;;;16.40;99.90;;;;;;5072355;28;20632;-73
2023/08/23 05:30:48;;;;;;;8.30;5.37;;;16.40;99.90;;;;;;5072427;28;20174;-73
2023/08/23 05:33:13;;;;;;;7.33;6.03;;;16.40;99.90;;;;;;5069693;28;20261;-73
2023/08/23 05:35:40;;;;;;;6.63;6.00;;;16.50;99.90;;;;;;5052397;28;20194;-73
2023/08/23 05:38:06;;;;;;;11.13;6.47;;;16.50;99.90;;;;;;5050886;28;20749;-73
2023/08/23 05:40:32;;;;;;;8.00;5.80;;;16.50;99.90;;;;;;5052239;28;20250;-74
2023/08/23 05:42:57;;;;;;;6.57;6.03;;;16.60;99.90;;;;;;5050401;28;20275;-73
2023/08/23 05:45:26;;;;;;;9.30;6.60;;;16.60;99.90;;;;;;5052190;28;20569;-74
2023/08/23 05:47:53;;;;;;;7.20;6.17;;;16.70;99.90;;;;;;5064431;28;20180;-73
2023/08/23 05:50:19;;;;;;;10.50;5.97;;;16.70;99.90;;;;;;5071919;28;20245;-74
2023/08/23 05:52:45;;;;;;;6.67;6.07;;;16.80;99.90;;;;;;5071853;28;20269;-74
2023/08/23 05:55:10;;;;;;;6.97;6.27;;;16.90;99.90;;;;;;5071923;28;20201;-73
2023/08/23 05:57:36;;;;;;;9.37;6.07;;;17.00;99.90;;;;;;5068940;28;20293;-73
2023/08/23 06:00:02;;;;;;;9.23;6.23;;;17.10;99.90;;;;;;5060312;28;20186;-72
2023/08/23 06:02:28;;;;;;;6.47;5.87;;;17.20;99.90;;;;;;5059766;28;20182;-72
2023/08/23 06:04:54;;;;;;;6.67;5.57;;;17.30;99.90;;;;;;5070368;28;20259;-73
2023/08/23 06:07:20;;;;;;;5.90;5.40;;;17.40;99.90;;;;;;5071705;28;20277;-72
2023/08/23 06:09:45;;;;;;;10.17;5.53;;;17.60;99.90;;;;;;5071671;28;20174;-73
2023/08/23 06:12:11;;;;;;;6.37;5.77;;;17.70;99.90;;;;;;5070469;28;20183;-72
2023/08/23 06:14:36;;;;;;;6.13;5.53;;;17.90;99.90;;;;;;5070861;28;20742;-72
2023/08/23 06:17:02;;;;;;;6.30;5.20;;;18.20;99.90;;;;;;5070034;28;20178;-72
2023/08/23 06:19:28;;;;;;;5.93;5.27;;;18.60;99.90;;;;;;5071627;28;20539;-73
2023/08/23 06:21:53;;;;;;;5.10;4.17;;;19.10;99.90;;;;;;5071147;28;20174;-73
2023/08/23 06:24:19;;;;;;;4.90;4.50;;;19.60;99.90;;;;;;5072425;28;20753;-73
2023/08/23 06:26:46;;;;;;;5.93;4.72;;;20.10;99.90;;;;;;5071784;28;20170;-73
2023/08/23 06:29:12;;;;;;;6.80;4.15;;;20.60;99.90;;;;;;5071281;28;20170;-73
2023/08/23 06:31:38;;;;;;;7.30;4.63;;;21.00;99.90;;;;;;5059759;28;20174;-73
2023/08/23 06:34:04;;;;;;;5.50;4.80;;;21.30;99.90;;;;;;5051288;28;20583;-72
2023/08/23 06:36:29;;;;;;;4.82;4.30;;;21.60;99.90;;;;;;5050106;28;20174;-72
2023/08/23 06:38:55;;;;;;;4.63;4.10;;;21.90;99.90;;;;;;5051501;28;20185;-72
2023/08/23 06:41:20;;;;;;;6.28;5.07;;;22.20;99.90;;;;;;5050891;28;20187;-72
2023/08/23 06:43:47;;;;;;;10.25;5.10;;;22.60;99.90;;;;;;5049987;28;20202;-73
2023/08/23 06:46:13;;;;;;;6.65;4.32;;;23.10;99.90;;;;;;5051009;28;20220;-72
2023/08/23 06:48:39;;;;;;;7.18;4.93;;;23.50;99.90;;;;;;5051186;28;20567;-73
2023/08/23 06:51:04;;;;;;;6.90;4.68;;;23.90;99.90;;;;;;5050541;28;20563;-74
2023/08/23 06:53:32;;;;;;;9.68;5.88;;;24.20;99.90;;;;;;5050802;28;20653;-72
2023/08/23 06:55:57;;;;;;;6.35;5.40;;;24.50;99.90;;;;;;5069565;28;20193;-72
2023/08/23 06:58:23;;;;;;;5.32;4.82;;;24.80;99.90;;;;;;5069584;28;20170;-74
2023/08/23 07:00:48;;;;;;;6.38;5.68;;;25.00;99.90;;;;;;5071199;28;20186;-73
2023/08/23 07:03:14;;;;;;;6.70;6.10;;;25.20;99.90;;;;;;5070719;28;20194;-72
2023/08/23 07:05:39;;;;;;;7.82;4.57;;;25.30;99.90;;;;;;5071108;28;20190;-73
2023/08/23 07:08:05;;;;;;;6.22;5.60;;;25.40;99.90;;;;;;5055087;28;20254;-72
2023/08/23 07:10:31;;;;;;;9.60;4.68;;;25.50;99.90;;;;;;5051334;28;20263;-73
2023/08/23 07:12:57;;;;;;;5.82;4.97;;;25.70;99.90;;;;;;5050858;28;20179;-73
2023/08/23 07:15:23;;;;;;;8.00;6.75;;;25.80;99.90;;;;;;5050911;28;20213;-73
2023/08/23 07:17:48;;;;;;;7.28;5.20;;;26.10;99.90;;;;;;5051126;28;20219;-73
2023/08/23 07:20:15;;;;;;;9.63;6.75;;;26.30;99.90;;;;;;5050618;28;20576;-73
2023/08/23 07:22:41;;;;;;;5.85;5.18;;;26.70;99.90;;;;;;5059851;28;20675;-73
2023/08/23 07:25:08;;;;;;;6.30;4.70;;;26.90;99.90;;;;;;5069519;28;20245;-73
2023/08/23 07:27:33;;;;;;;8.32;5.32;;;27.10;99.90;;;;;;5053519;28;20179;-73
2023/08/23 07:30:00;;;;;;;14.45;13.57;;;27.50;99.90;;;;;;5050985;28;20368;-73
2023/08/23 07:32:30;;;;;;;10.65;8.88;;;27.90;99.90;;;;;;5050455;28;20240;-73
2023/08/23 07:34:56;;;;;;;9.43;7.30;;;28.30;99.90;;;;;;5050914;28;20191;-73
2023/08/23 07:37:22;;;;;;;20.42;18.77;;;28.70;99.90;;;;;;5059065;28;20255;-73
2023/08/23 07:39:48;;;;;;;9.80;9.02;;;29.00;99.90;;;;;;5057833;28;20879;-73
2023/08/23 07:42:14;;;;;;;11.52;6.15;;;29.20;99.90;;;;;;5067044;28;20190;-73
2023/08/23 07:44:39;;;;;;;26.00;24.35;;;29.70;99.90;;;;;;5058003;28;20976;-73
2023/08/23 07:47:05;;;;;;;10.65;6.93;;;30.00;99.90;;;;;;5071042;28;20171;-73
2023/08/23 07:49:30;;;;;;;10.73;9.88;;;30.00;99.90;;;;;;5057992;28;20233;-73
2023/08/23 07:51:57;;;;;;;19.33;17.83;;;30.00;99.90;;;;;;5050644;28;20544;-73
2023/08/23 07:54:22;;;;;;;24.63;23.13;;;29.90;99.90;;;;;;5050773;28;20183;-73
2023/08/23 07:56:48;;;;;;;22.15;20.45;;;29.80;99.90;;;;;;5051003;28;20641;-73
2023/08/23 07:59:13;;;;;;;39.10;37.08;;;30.10;99.90;;;;;;5051009;28;20178;-73
2023/08/23 08:01:39;;;;;;;27.00;25.35;;;30.50;99.90;;;;;;5063182;28;20231;-73
2023/08/23 08:04:05;;;;;;;19.80;18.40;;;30.80;99.90;;;;;;5073776;28;20539;-74
2023/08/23 08:06:30;;;;;;;21.90;20.48;;;31.00;99.90;;;;;;5073338;28;20182;-73
2023/08/23 08:08:56;;;;;;;22.52;20.92;;;31.20;99.90;;;;;;5075524;28;20170;-73
2023/08/23 08:11:21;;;;;;;19.33;17.83;;;31.30;99.90;;;;;;5075376;28;20178;-73
2023/08/23 08:13:47;;;;;;;22.88;21.23;;;31.30;99.90;;;;;;5075265;28;20556;-73
2023/08/23 08:16:14;;;;;;;19.15;17.42;;;31.30;99.90;;;;;;5067968;28;20233;-73
2023/08/23 08:18:39;;;;;;;22.33;20.73;;;31.40;99.90;;;;;;5055465;28;20178;-72
2023/08/23 08:21:05;;;;;;;18.63;17.15;;;31.50;99.90;;;;;;5056483;28;20171;-73
2023/08/23 08:23:31;;;;;;;14.57;13.38;;;31.70;99.90;;;;;;5066479;28;20212;-72
2023/08/23 08:25:57;;;;;;;17.38;15.68;;;31.80;99.90;;;;;;5071350;28;20190;-73
2023/08/23 08:28:24;;;;;;;20.90;19.30;;;31.80;99.90;;;;;;5059388;28;20660;-72
2023/08/23 08:30:50;;;;;;;25.42;23.85;;;31.90;99.90;;;;;;5066137;28;20179;-73
2023/08/23 08:33:16;;;;;;;23.63;21.88;;;32.00;99.90;;;;;;5053436;28;20201;-73
2023/08/23 08:35:43;;;;;;;23.92;22.25;;;32.00;99.90;;;;;;5053711;28;20179;-72
2023/08/23 08:38:08;;;;;;;20.80;19.20;;;32.00;99.90;;;;;;5065687;28;20265;-73
2023/08/23 08:40:36;;;;;;;21.13;19.52;;;32.10;99.90;;;;;;5053573;28;20298;-73
2023/08/23 08:43:02;;;;;;;19.42;18.10;;;32.40;99.90;;;;;;5059697;28;20212;-74
2023/08/23 08:45:28;;;;;;;21.70;20.20;;;32.70;99.90;;;;;;5066949;28;20676;-74
2023/08/23 08:47:54;;;;;;;33.72;31.58;;;32.90;99.90;;;;;;5053306;28;20186;-73
2023/08/23 08:50:20;;;;;;;30.33;28.27;;;32.80;99.90;;;;;;5054193;28;20182;-73
2023/08/23 08:52:51;;;;;;;34.40;31.67;;;32.80;99.90;;;;;;5054300;28;20179;-73
2023/08/23 08:55:18;;;;;;;41.42;39.10;;;32.50;99.90;;;;;;5054123;28;20611;-74
2023/08/23 08:57:48;;;;;;;35.97;33.33;;;32.10;99.90;;;;;;5053229;28;20179;-73
2023/08/23 09:00:14;;;;;;;29.15;27.00;;;31.90;99.90;;;;;;5068024;28;20217;-73
2023/08/23 09:02:41;;;;;;;16.70;15.52;;;31.50;99.90;;;;;;5057479;28;20655;-73
2023/08/23 09:05:07;;;;;;;17.40;15.98;;;31.50;99.90;;;;;;5052723;28;20207;-74
2023/08/23 09:07:33;;;;;;;19.77;18.02;;;31.60;99.90;;;;;;5053372;28;20562;-74
2023/08/23 09:09:58;;;;;;;15.45;14.02;;;31.70;99.90;;;;;;5063580;28;20265;-72
2023/08/23 09:12:24;;;;;;;20.42;19.02;;;31.70;99.90;;;;;;5058500;28;20187;-73
2023/08/23 09:14:50;;;;;;;34.22;32.30;;;31.90;99.90;;;;;;5052552;28;20703;-72
2023/08/23 09:17:19;;;;;;;35.88;33.65;;;32.30;99.90;;;;;;5052745;28;20214;-73
2023/08/23 09:19:45;;;;;;;24.17;22.88;;;32.50;99.90;;;;;;5052989;28;20177;-73
2023/08/23 09:22:11;;;;;;;23.88;22.38;;;32.90;99.90;;;;;;5053215;28;20186;-73
2023/08/23 09:24:36;;;;;;;23.00;21.15;;;33.20;99.90;;;;;;5068338;28;20210;-73
2023/08/23 09:27:02;;;;;;;26.95;25.30;;;33.40;99.90;;;;;;5070532;28;20260;-73
2023/08/23 09:29:28;;;;;;;22.27;20.52;;;33.40;99.90;;;;;;5061101;28;20178;-73
2023/08/23 09:31:57;;;;;;;23.50;21.80;;;33.60;99.90;;;;;;5059163;28;20543;-73
2023/08/23 09:34:23;;;;;;;26.10;24.13;;;33.70;99.90;;;;;;5072259;28;20289;-73
2023/08/23 09:36:49;;;;;;;23.67;22.20;;;33.60;99.90;;;;;;5072455;28;20254;-73
2023/08/23 09:39:18;;;;;;;31.00;28.90;;;33.50;99.90;;;;;;5060570;28;20695;-73
2023/08/23 09:41:43;;;;;;;26.30;24.75;;;33.60;99.90;;;;;;5072359;28;20248;-72
2023/08/23 09:44:09;;;;;;;28.70;26.33;;;33.70;99.90;;;;;;5071975;28;20229;-73
2023/08/23 09:46:36;;;;;;;30.15;28.38;;;33.50;99.90;;;;;;5072167;28;20173;-73
2023/08/23 09:49:06;;;;;;;26.38;25.08;;;33.70;99.90;;;;;;5072113;28;20170;-74
2023/08/23 09:51:37;;;;;;;20.67;19.23;;;34.00;99.90;;;;;;5072302;28;20195;-74
2023/08/23 09:54:17;;;;;;;11.15;10.32;;;34.00;99.90;;;;;;5071076;28;20197;-73
2023/08/23 09:56:43;;;;;;;12.55;11.30;;;34.00;99.90;;;;;;5071999;28;20644;-73
2023/08/23 09:59:12;;;;;;;10.38;9.48;;;34.00;99.90;;;;;;5071325;28;20245;-73
2023/08/23 10:01:38;;;;;;;15.50;14.60;;;33.80;99.90;;;;;;5071723;28;20194;-74
2023/08/23 10:04:06;;;;;;;10.07;9.27;;;33.50;99.90;;;;;;5071645;28;20213;-73
2023/08/23 10:06:32;;;;;;;12.63;11.70;;;33.50;99.90;;;;;;5071864;28;20261;-74
2023/08/23 10:08:58;;;;;;;10.98;10.18;;;33.60;99.90;;;;;;5071758;28;20304;-73
2023/08/23 10:11:27;;;;;;;13.75;12.85;;;33.70;99.90;;;;;;5071584;28;20311;-72
2023/08/23 10:13:54;;;;;;;18.10;16.58;;;33.50;99.90;;;;;;5071747;28;20198;-72
2023/08/23 10:16:22;;;;;;;22.27;20.88;;;33.00;99.90;;;;;;5071743;28;20179;-73
2023/08/23 10:18:49;;;;;;;25.50;24.02;;;32.60;99.90;;;;;;5071406;28;20178;-73
2023/08/23 10:21:15;;;;;;;24.50;23.13;;;32.50;99.90;;;;;;5070161;28;20178;-73
2023/08/23 10:23:41;;;;;;;27.30;25.85;;;32.70;99.90;;;;;;5071563;28;20197;-74
2023/08/23 10:26:21;;;;;;;23.70;22.45;;;32.80;99.90;;;;;;5070993;28;20166;-73
2023/08/23 10:28:52;;;;;;;27.35;25.85;;;32.60;99.90;;;;;;5071585;28;20173;-73
2023/08/23 10:31:27;;;;;;;34.70;32.90;;;32.50;99.90;;;;;;5071416;28;20170;-73
2023/08/23 10:33:54;;;;;;;34.72;33.15;;;32.70;99.90;;;;;;5071538;28;20670;-73
2023/08/23 10:36:25;;;;;;;54.58;52.15;;;32.90;99.90;;;;;;5071503;28;20256;-73
2023/08/23 10:38:53;;;;;;;47.55;45.05;;;33.10;99.90;;;;;;5070293;28;20239;-71
2023/08/23 10:41:18;;;;;;;61.55;58.80;;;33.10;99.90;;;;;;5071157;28;20166;-74
2023/08/23 10:43:47;;;;;;;36.00;34.33;;;32.90;99.90;;;;;;5071500;28;20687;-74
2023/08/23 10:46:17;;;;;;;33.95;32.15;;;32.50;99.90;;;;;;5071238;28;20201;-74
2023/08/23 10:48:44;;;;;;;27.48;25.88;;;32.50;99.90;;;;;;5071284;28;20162;-72
2023/08/23 10:51:11;;;;;;;23.70;22.48;;;32.60;99.90;;;;;;5071166;28;20170;-72
2023/08/23 10:53:36;;;;;;;19.48;18.42;;;32.50;99.90;;;;;;5069993;28;20656;-73
2023/08/23 10:56:02;;;;;;;19.88;18.80;;;31.90;99.90;;;;;;5071937;28;20212;-74
2023/08/23 10:58:30;;;;;;;13.88;13.05;;;31.50;99.90;;;;;;5071293;28;20650;-71
2023/08/23 11:00:56;;;;;;;15.68;14.77;;;30.80;99.90;;;;;;5071296;28;20182;-73
2023/08/23 11:03:22;;;;;;;22.52;21.05;;;30.30;99.90;;;;;;5070847;28;20280;-73
2023/08/23 11:05:48;;;;;;;9.90;7.95;;;29.80;99.90;;;;;;5072246;28;20483;-73
2023/08/23 11:08:15;;;;;;;12.52;11.55;;;29.60;99.90;;;;;;5072689;28;20286;-72
2023/08/23 11:10:42;;;;;;;17.95;16.83;;;29.60;99.90;;;;;;5072803;28;20176;-73
2023/08/23 11:13:07;;;;;;;18.27;17.38;;;29.60;99.90;;;;;;5072697;28;20627;-74
2023/08/23 11:15:34;;;;;;;24.23;22.73;;;29.80;99.90;;;;;;5073023;28;20197;-73
2023/08/23 11:18:00;;;;;;;21.85;20.65;;;30.00;99.90;;;;;;5071385;28;20166;-72
2023/08/23 11:20:28;;;;;;;12.65;11.85;;;30.00;99.90;;;;;;5071780;28;20166;-72
2023/08/23 11:22:54;;;;;;;15.43;14.32;;;30.00;99.90;;;;;;5067652;28;20177;-72
2023/08/23 11:25:20;;;;;;;16.88;15.98;;;30.10;99.90;;;;;;5052079;28;20556;-74
2023/08/23 11:27:45;;;;;;;18.52;17.40;;;30.20;99.90;;;;;;5055177;28;20644;-73
2023/08/23 11:30:11;;;;;;;18.85;17.55;;;30.40;99.90;;;;;;5070870;28;20192;-72
2023/08/23 11:32:37;;;;;;;17.70;16.80;;;30.40;99.90;;;;;;5070572;28;20167;-73
2023/08/23 11:35:05;;;;;;;18.67;17.85;;;30.40;99.90;;;;;;5069344;28;20552;-72
2023/08/23 11:37:31;;;;;;;19.33;18.10;;;30.40;99.90;;;;;;5072927;28;20174;-71
2023/08/23 11:39:57;;;;;;;21.45;20.38;;;30.50;99.90;;;;;;5074797;28;20197;-75
2023/08/23 11:42:24;;;;;;;22.00;20.95;;;30.50;99.90;;;;;;5075468;28;20196;-74
2023/08/23 11:44:52;;;;;;;20.77;19.63;;;30.50;99.90;;;;;;5074610;28;20701;-73
2023/08/23 11:47:18;;;;;;;24.80;23.58;;;30.40;99.90;;;;;;5073944;28;20170;-73
2023/08/23 11:49:46;;;;;;;21.27;20.27;;;30.50;99.90;;;;;;5075330;28;20170;-72
2023/08/23 11:52:16;;;;;;;15.93;15.10;;;30.70;99.90;;;;;;5074413;28;20166;-72
2023/08/23 11:54:43;;;;;;;24.75;23.60;;;30.80;99.90;;;;;;5054826;28;20226;-73
2023/08/23 11:57:08;;;;;;;35.55;33.97;;;30.80;99.90;;;;;;5054246;28;20632;-71
2023/08/23 11:59:34;;;;;;;47.22;45.13;;;30.90;99.90;;;;;;5054496;28;20186;-73
2023/08/23 12:02:00;;;;;;;39.92;38.15;;;30.90;99.90;;;;;;5052683;28;20181;-72
2023/08/23 12:04:25;;;;;;;15.88;14.90;;;30.90;99.90;;;;;;5054180;28;20219;-72
2023/08/23 12:06:52;;;;;;;15.90;15.13;;;30.90;99.90;;;;;;5054200;28;20629;-73
2023/08/23 12:09:19;;;;;;;16.20;15.27;;;30.80;99.90;;;;;;5054199;28;20185;-73
2023/08/23 12:11:45;;;;;;;24.92;23.60;;;30.80;99.90;;;;;;5054442;28;20540;-72
2023/08/23 12:14:10;;;;;;;49.45;46.95;;;30.50;99.90;;;;;;5057317;28;20198;-73
2023/08/23 12:16:36;;;;;;;41.78;39.78;;;30.30;99.90;;;;;;5053912;28;20594;-72
2023/08/23 12:19:02;;;;;;;39.22;37.45;;;30.40;99.90;;;;;;5053919;28;20171;-71
2023/08/23 12:21:27;;;;;;;42.25;40.08;;;30.40;99.90;;;;;;5065165;28;20182;-73
2023/08/23 12:23:53;;;;;;;14.57;13.73;;;30.60;99.90;;;;;;5073731;28;20202;-72
2023/08/23 12:26:23;;;;;;;20.48;19.55;;;30.90;99.90;;;;;;5073741;28;20182;-72
2023/08/23 12:28:48;;;;;;;18.95;17.83;;;31.00;99.90;;;;;;5073699;28;20249;-73
2023/08/23 12:31:16;;;;;;;17.35;16.17;;;31.20;99.90;;;;;;5073507;28;20257;-72
2023/08/23 12:33:42;;;;;;;30.77;29.15;;;31.40;99.90;;;;;;5073648;28;20198;-72